createdAt,value
2023-03-23T15:58:41.325Z,72.31
2023-03-23T16:01:14.555Z,71.48
2023-03-23T16:03:46.648Z,70.85
2023-03-23T16:06:24.977Z,72.31
2023-03-23T16:08:54.238Z,67.62
2023-03-23T16:11:23.856Z,70.58
2023-03-23T16:13:51.661Z,70.43
2023-03-23T16:16:24.507Z,69.66
2023-03-23T16:18:52.098Z,67.60
2023-03-23T16:21:19.574Z,67.67
2023-03-23T16:23:47.159Z,69.86
2023-03-23T16:26:14.870Z,67.42
2023-03-23T16:28:42.536Z,67.32
2023-03-23T16:31:10.404Z,69.07
2023-03-23T16:33:39.418Z,68.68
2023-03-23T16:36:07.764Z,68.77
2023-03-23T16:38:49.149Z,70.46
2023-03-23T16:41:17.740Z,71.03
2023-03-23T16:43:45.208Z,70.15
2023-03-23T16:46:13.950Z,72.63
2023-03-23T16:48:42.822Z,69.92
2023-03-23T16:51:10.800Z,70.50
2023-03-23T16:53:38.334Z,71.47
2023-03-23T16:56:06.687Z,72.80
2023-03-23T16:58:34.181Z,70.18
2023-03-23T17:01:02.158Z,71.03
2023-03-23T17:03:29.765Z,75.05
2023-03-23T17:06:00.637Z,69.93
2023-03-23T17:08:28.989Z,73.25
2023-03-23T17:10:56.813Z,73.12
2023-03-23T17:13:25.390Z,72.53
2023-03-23T17:15:53.947Z,74.33
2023-03-23T17:18:21.640Z,71.79
2023-03-23T17:20:49.368Z,73.61
2023-03-23T17:23:18.326Z,73.33
2023-03-23T17:25:47.566Z,72.60
2023-03-23T17:28:15.833Z,70.90
2023-03-23T17:30:45.646Z,69.66
2023-03-23T17:33:14.068Z,70.01
2023-03-23T17:35:43.333Z,71.43
2023-03-23T17:38:11.000Z,73.60
2023-03-23T17:40:39.982Z,72.77
2023-03-23T17:43:07.476Z,73.63
2023-03-23T17:45:36.465Z,71.82
2023-03-23T17:48:07.471Z,74.14
2023-03-23T17:50:35.484Z,72.32
2023-03-23T17:53:03.080Z,73.71
2023-03-23T17:55:30.568Z,73.64
2023-03-23T17:57:59.390Z,71.11
2023-03-23T18:00:26.963Z,72.35
2023-03-23T18:02:54.622Z,74.83
2023-03-23T18:05:24.182Z,72.51
2023-03-23T18:07:51.719Z,74.43
2023-03-23T18:10:19.494Z,76.28
2023-03-23T18:12:49.980Z,73.35
2023-03-23T18:15:19.223Z,76.20
2023-03-23T18:17:48.167Z,78.25
2023-03-23T18:20:15.934Z,79.57
2023-03-23T18:22:43.503Z,78.18
2023-03-23T18:25:11.250Z,77.00
2023-03-23T18:27:38.907Z,74.89
2023-03-23T18:30:07.670Z,78.42
2023-03-23T18:32:37.427Z,78.35
2023-03-23T18:35:06.419Z,75.88
2023-03-23T18:37:34.352Z,75.29
2023-03-23T18:40:02.216Z,73.78
2023-03-23T18:42:30.161Z,72.75
2023-03-23T18:44:59.837Z,72.42
2023-03-23T18:47:28.055Z,72.57
2023-03-23T18:49:56.987Z,73.72
2023-03-23T18:52:26.441Z,72.77
2023-03-23T18:54:54.839Z,72.89
2023-03-23T18:57:22.764Z,72.86
2023-03-23T18:59:50.766Z,74.42
2023-03-23T19:02:19.392Z,76.56
2023-03-23T19:04:47.323Z,75.83
2023-03-23T19:07:17.365Z,74.61
2023-03-23T19:09:46.094Z,76.74
2023-03-23T19:12:14.033Z,80.59
2023-03-23T19:14:41.830Z,78.18
2023-03-23T19:17:10.219Z,82.71
2023-03-23T19:19:38.199Z,83.34
2023-03-23T19:22:08.561Z,77.58
2023-03-23T19:24:38.316Z,80.73
2023-03-23T19:27:06.312Z,81.16
2023-03-23T19:29:34.848Z,83.52
2023-03-23T19:32:02.864Z,83.75
2023-03-23T19:34:31.001Z,85.49
2023-03-23T19:37:05.487Z,82.19
2023-03-23T19:39:34.186Z,78.93
2023-03-23T19:42:04.367Z,81.59
2023-03-23T19:44:32.034Z,81.74
2023-03-23T19:46:59.927Z,84.13
2023-03-23T19:49:28.248Z,82.50
2023-03-23T19:52:09.194Z,85.64
2023-03-23T19:54:38.469Z,84.95
2023-03-23T19:57:08.787Z,84.84
2023-03-23T19:59:36.767Z,84.09
2023-03-23T20:02:04.292Z,84.79
2023-03-23T20:04:31.830Z,85.15
2023-03-23T20:07:00.534Z,83.64
2023-03-23T20:09:28.656Z,82.95
2023-03-23T20:11:56.501Z,86.93
2023-03-23T20:14:26.107Z,86.92
2023-03-23T20:16:54.951Z,84.37
2023-03-23T20:19:22.608Z,87.69
2023-03-23T20:21:52.214Z,88.21
2023-03-23T20:24:19.976Z,87.86
2023-03-23T20:26:47.861Z,88.71
2023-03-23T20:29:15.360Z,89.93
2023-03-23T20:31:46.390Z,90.13
2023-03-23T20:34:30.573Z,90.17
2023-03-23T20:36:59.229Z,89.85
2023-03-23T20:39:29.293Z,88.35
2023-03-23T20:42:00.430Z,87.18
2023-03-23T20:44:31.036Z,87.33
2023-03-23T20:46:59.914Z,88.83
2023-03-23T20:49:28.457Z,88.87
2023-03-23T20:51:56.028Z,88.42
2023-03-23T20:54:24.480Z,90.98
2023-03-23T20:56:54.842Z,86.73
2023-03-23T20:59:23.673Z,89.76
2023-03-23T21:01:52.798Z,89.01
2023-03-23T21:04:27.185Z,88.95
2023-03-23T21:06:55.737Z,90.55
2023-03-23T21:09:24.696Z,90.57
2023-03-23T21:11:52.185Z,91.91
2023-03-23T21:14:19.943Z,91.70
2023-03-23T21:16:47.409Z,89.08
2023-03-23T21:19:15.024Z,89.37
2023-03-23T21:21:56.722Z,89.62
2023-03-23T21:24:26.393Z,89.01
2023-03-23T21:26:54.288Z,88.67
2023-03-23T21:29:23.987Z,85.55
2023-03-23T21:32:01.124Z,85.05
2023-03-23T21:34:35.348Z,83.99
2023-03-23T21:37:04.155Z,83.35
2023-03-23T21:39:31.800Z,81.18
2023-03-23T21:42:01.709Z,80.56
2023-03-23T21:44:29.263Z,81.42
2023-03-23T21:46:56.755Z,80.89
2023-03-23T21:49:24.333Z,79.35
2023-03-23T21:51:51.930Z,82.82
2023-03-23T21:54:21.243Z,83.95
2023-03-23T21:56:49.471Z,82.85
2023-03-23T21:59:17.618Z,81.15
2023-03-23T22:01:45.225Z,82.84
2023-03-23T22:04:12.747Z,77.91
2023-03-23T22:06:40.841Z,77.11
2023-03-23T22:09:09.644Z,79.28
2023-03-23T22:11:39.247Z,78.33
2023-03-23T22:14:07.509Z,78.00
2023-03-23T22:16:35.100Z,77.41
2023-03-23T22:19:03.324Z,77.17
2023-03-23T22:21:30.871Z,75.86
2023-03-23T22:24:00.098Z,80.83
2023-03-23T22:26:28.412Z,80.41
2023-03-23T22:28:57.581Z,81.60
2023-03-23T22:31:28.965Z,83.43
2023-03-23T22:33:57.581Z,78.99
2023-03-23T22:36:27.422Z,81.65
2023-03-23T22:41:26.091Z,81.92
2023-03-23T22:43:53.680Z,81.83
2023-03-23T22:46:25.000Z,82.74
2023-03-23T22:48:53.464Z,83.28
2023-03-23T22:51:22.183Z,80.99
2023-03-23T22:53:50.376Z,77.01
2023-03-23T22:56:18.407Z,76.57
2023-03-23T22:58:45.950Z,75.50
2023-03-23T23:01:15.758Z,75.73
2023-03-23T23:03:45.448Z,76.71
2023-03-23T23:06:14.249Z,76.91
2023-03-23T23:08:42.781Z,75.97
2023-03-23T23:11:12.088Z,75.50
2023-03-23T23:13:40.823Z,75.66
2023-03-23T23:16:09.422Z,77.81
2023-03-23T23:18:37.863Z,76.32
2023-03-23T23:21:08.824Z,75.77
2023-03-23T23:23:37.445Z,75.78
2023-03-23T23:26:06.224Z,77.84
2023-03-23T23:28:34.019Z,76.27
2023-03-23T23:31:01.712Z,77.32
2023-03-23T23:33:29.528Z,77.59
2023-03-23T23:35:57.288Z,77.96
2023-03-23T23:38:26.199Z,78.77
2023-03-23T23:40:53.718Z,80.25
2023-03-23T23:43:21.220Z,78.28
2023-03-23T23:45:48.734Z,79.10
2023-03-23T23:48:16.415Z,77.30
2023-03-23T23:50:44.257Z,77.08
2023-03-23T23:53:12.964Z,78.51
2023-03-23T23:55:41.848Z,76.99
2023-03-23T23:58:09.321Z,80.92
